createdAt,value
2023-09-18T00:00:33.802Z,101171.38
2023-09-18T00:03:04.060Z,101173.06
2023-09-18T00:05:31.060Z,101172.00
2023-09-18T00:07:57.572Z,101164.84
2023-09-18T00:10:24.118Z,101164.84
2023-09-18T00:12:50.634Z,101159.75
2023-09-18T00:15:17.061Z,101156.59
2023-09-18T00:17:43.573Z,101161.22
2023-09-18T00:20:10.625Z,101159.53
2023-09-18T00:22:37.120Z,101151.31
2023-09-18T00:25:03.725Z,101156.78
2023-09-18T00:27:30.450Z,101144.13
2023-09-18T00:29:56.885Z,101142.47
2023-09-18T00:32:23.535Z,101140.75
2023-09-18T00:34:50.050Z,101141.63
2023-09-18T00:37:17.822Z,101140.75
2023-09-18T00:39:45.314Z,101144.13
2023-09-18T00:42:14.986Z,101131.03
2023-09-18T00:44:42.223Z,101141.19
2023-09-18T00:47:09.777Z,101131.03
2023-09-18T00:49:37.521Z,101134.84
2023-09-18T00:52:04.911Z,101121.97
2023-09-18T00:54:32.470Z,101126.44
2023-09-18T00:56:59.290Z,101125.38
2023-09-18T00:59:26.053Z,101120.94
2023-09-18T01:01:53.604Z,101123.88
2023-09-18T01:04:20.972Z,101121.34
2023-09-18T01:06:48.301Z,101117.75
2023-09-18T01:09:16.150Z,101122.19
2023-09-18T01:11:48.820Z,101123.44
2023-09-18T01:14:15.230Z,101117.13
2023-09-18T01:17:11.547Z,101120.25
2023-09-18T01:19:38.980Z,101115.00
2023-09-18T01:22:06.458Z,101115.63
2023-09-18T01:24:33.949Z,101114.09
2023-09-18T01:27:00.393Z,101109.69
2023-09-18T01:29:26.883Z,101106.50
2023-09-18T01:31:53.528Z,101103.97
2023-09-18T01:34:21.594Z,101101.06
2023-09-18T01:36:48.429Z,101108.91
2023-09-18T01:39:16.034Z,101097.91
2023-09-18T01:41:42.482Z,101101.28
2023-09-18T01:44:09.004Z,101098.75
2023-09-18T01:46:38.732Z,101102.34
2023-09-18T01:49:05.219Z,101103.19
2023-09-18T01:51:31.592Z,101098.53
2023-09-18T01:53:58.082Z,101092.44
2023-09-18T01:56:25.217Z,101088.19
2023-09-18T01:58:51.924Z,101090.47
2023-09-18T02:01:19.027Z,101088.78
2023-09-18T02:04:13.212Z,101081.41
2023-09-18T02:06:33.544Z,101084.78
2023-09-18T02:09:01.725Z,101083.09
2023-09-18T02:11:28.779Z,101077.41
2023-09-18T02:13:55.285Z,101072.53
2023-09-18T02:16:25.235Z,101076.75
2023-09-18T02:18:51.978Z,101063.75
2023-09-18T02:21:22.419Z,101061.16
2023-09-18T02:23:52.366Z,101067.47
2023-09-18T02:26:19.558Z,101050.41
2023-09-18T02:28:46.004Z,101041.53
2023-09-18T02:31:12.596Z,101051.47
2023-09-18T02:33:39.266Z,101036.47
2023-09-18T02:36:05.706Z,101022.31
2023-09-18T02:38:32.180Z,101026.13
2023-09-18T02:40:58.601Z,101028.66
2023-09-18T02:43:25.199Z,101019.38
2023-09-18T02:45:51.859Z,101020.84
2023-09-18T02:48:18.927Z,101011.53
2023-09-18T02:50:45.678Z,101008.00
2023-09-18T02:53:20.357Z,101005.00
2023-09-18T02:55:48.216Z,101006.91
2023-09-18T02:58:14.689Z,100999.06
2023-09-18T03:00:46.958Z,101005.19
2023-09-18T03:03:13.996Z,101002.22
2023-09-18T03:05:41.316Z,101002.41
2023-09-18T03:08:08.576Z,100995.47
2023-09-18T03:10:35.667Z,100990.63
2023-09-18T03:13:02.976Z,100998.59
2023-09-18T03:15:29.643Z,100996.94
2023-09-18T03:17:57.113Z,100993.13
2023-09-18T03:20:24.851Z,100987.69
2023-09-18T03:22:59.294Z,100993.16
2023-09-18T03:25:26.317Z,100976.69
2023-09-18T03:27:53.512Z,100972.69
2023-09-18T03:30:20.514Z,100978.53
2023-09-18T03:32:47.108Z,100980.00
2023-09-18T03:35:19.320Z,100975.34
2023-09-18T03:37:49.336Z,100977.25
2023-09-18T03:40:16.513Z,100972.22
2023-09-18T03:42:43.110Z,100973.06
2023-09-18T03:45:10.373Z,100968.41
2023-09-18T03:47:37.145Z,100969.25
2023-09-18T03:50:04.229Z,100969.09
2023-09-18T03:52:30.682Z,100967.56
2023-09-18T03:54:57.374Z,100968.41
2023-09-18T03:57:23.812Z,100968.59
2023-09-18T03:59:50.170Z,100962.25
2023-09-18T04:02:16.606Z,100958.84
2023-09-18T04:04:43.066Z,100956.31
2023-09-18T04:07:09.824Z,100955.25
2023-09-18T04:09:37.195Z,100952.72
2023-09-18T04:12:05.514Z,100954.16
2023-09-18T04:14:32.030Z,100955.03
2023-09-18T04:16:58.522Z,100947.63
2023-09-18T04:19:24.911Z,100943.41
2023-09-18T04:21:51.274Z,100947.00
2023-09-18T04:24:18.109Z,100930.34
2023-09-18T04:26:44.603Z,100937.94
2023-09-18T04:29:11.155Z,100940.50
2023-09-18T04:31:38.937Z,100949.00
2023-09-18T04:34:05.822Z,100933.00
2023-09-18T04:36:34.779Z,100934.47
2023-09-18T04:39:01.744Z,100930.47
2023-09-18T04:41:28.519Z,100927.72
2023-09-18T04:43:55.039Z,100927.94
2023-09-18T04:46:21.480Z,100923.13
2023-09-18T04:48:48.453Z,100925.28
2023-09-18T04:51:14.832Z,100924.22
2023-09-18T04:53:42.227Z,100919.16
2023-09-18T04:56:09.013Z,100928.44
2023-09-18T04:58:38.321Z,100920.00
2023-09-18T05:01:08.232Z,100916.44
2023-09-18T05:03:35.484Z,100917.47
2023-09-18T05:06:02.757Z,100922.31
2023-09-18T05:08:29.554Z,100914.09
2023-09-18T05:10:56.662Z,100920.00
2023-09-18T05:13:23.165Z,100915.19
2023-09-18T05:15:49.582Z,100919.81
2023-09-18T05:18:16.069Z,100925.09
2023-09-18T05:20:42.547Z,100921.50
2023-09-18T05:23:09.412Z,100921.91
2023-09-18T05:25:39.265Z,100921.50
2023-09-18T05:28:06.779Z,100912.34
2023-09-18T05:30:35.444Z,100906.88
2023-09-18T05:33:06.795Z,100899.72
2023-09-18T05:35:34.215Z,100902.25
2023-09-18T05:38:01.265Z,100900.78
2023-09-18T05:40:30.687Z,100900.31
2023-09-18T05:42:57.474Z,100893.56
2023-09-18T05:45:24.395Z,100899.69
2023-09-18T05:47:51.671Z,100899.47
2023-09-18T05:50:18.226Z,100896.72
2023-09-18T05:52:45.268Z,100898.41
2023-09-18T05:55:11.847Z,100889.59
2023-09-18T05:57:38.380Z,100890.44
2023-09-18T06:00:06.129Z,100885.63
2023-09-18T06:02:32.693Z,100881.81
2023-09-18T06:05:01.262Z,100878.00
2023-09-18T06:07:28.242Z,100875.97
2023-09-18T06:09:54.759Z,100863.94
2023-09-18T06:12:22.023Z,100860.13
2023-09-18T06:14:49.179Z,100852.56
2023-09-18T06:17:16.306Z,100848.13
2023-09-18T06:19:43.212Z,100839.72
2023-09-18T06:22:09.666Z,100836.56
2023-09-18T06:24:36.462Z,100837.41
2023-09-18T06:27:05.289Z,100845.19
2023-09-18T06:29:32.447Z,100837.19
2023-09-18T06:31:59.186Z,100832.34
2023-09-18T06:34:25.943Z,100829.63
2023-09-18T06:36:52.388Z,100834.88
2023-09-18T06:39:18.797Z,100827.50
2023-09-18T06:41:45.411Z,100822.84
2023-09-18T06:44:11.893Z,100830.00
2023-09-18T06:46:38.428Z,100831.50
2023-09-18T06:49:04.922Z,100814.84
2023-09-18T06:54:03.852Z,100809.34
2023-09-18T06:56:30.600Z,100811.06
2023-09-18T06:58:57.074Z,100798.81
2023-09-18T07:01:25.608Z,100799.22
2023-09-18T07:03:52.230Z,100792.28
2023-09-18T07:06:21.906Z,100800.91
2023-09-18T07:08:50.958Z,100795.22
2023-09-18T07:11:18.340Z,100793.13
2023-09-18T07:13:44.988Z,100795.84
2023-09-18T07:16:11.896Z,100787.63
2023-09-18T07:18:38.736Z,100782.16
2023-09-18T07:21:05.246Z,100777.09
2023-09-18T07:23:31.810Z,100769.47
2023-09-18T07:26:01.270Z,100763.56
2023-09-18T07:28:27.974Z,100759.16
2023-09-18T07:30:54.464Z,100762.50
2023-09-18T07:33:21.598Z,100758.28
2023-09-18T07:35:49.309Z,100760.59
2023-09-18T07:38:16.274Z,100757.63
2023-09-18T07:40:43.280Z,100746.66
2023-09-18T07:43:09.774Z,100749.22
2023-09-18T07:45:36.522Z,100744.34
2023-09-18T07:48:03.624Z,100749.19
2023-09-18T07:50:32.719Z,100741.78
2023-09-18T07:52:59.242Z,100732.31
2023-09-18T07:55:25.784Z,100740.31
2023-09-18T07:57:52.986Z,100738.84
2023-09-18T08:00:19.511Z,100733.34
2023-09-18T08:02:47.516Z,100735.03
2023-09-18T08:05:19.192Z,100723.88
2023-09-18T08:07:48.215Z,100731.84
2023-09-18T08:10:14.680Z,100740.72
2023-09-18T08:12:41.110Z,100729.75
2023-09-18T08:15:07.930Z,100736.09
2023-09-18T08:17:34.463Z,100731.44
2023-09-18T08:20:00.994Z,100728.25
2023-09-18T08:22:28.994Z,100737.75
2023-09-18T08:24:56.454Z,100727.81
2023-09-18T08:27:25.462Z,100730.53
2023-09-18T08:29:52.141Z,100721.06
2023-09-18T08:34:48.327Z,100719.56
2023-09-18T08:37:15.025Z,100725.28
2023-09-18T08:39:41.673Z,100719.78
2023-09-18T08:42:08.882Z,100716.59
2023-09-18T08:44:39.144Z,100698.84
2023-09-18T08:47:06.515Z,100688.50
2023-09-18T08:49:33.983Z,100689.34
2023-09-18T08:52:00.483Z,100689.13
2023-09-18T08:54:27.164Z,100697.13
2023-09-18T08:56:54.541Z,100691.44
2023-09-18T08:59:22.809Z,100692.03
2023-09-18T09:01:49.328Z,100684.66
2023-09-18T09:04:16.096Z,100691.38
2023-09-18T09:06:42.619Z,100689.47
2023-09-18T09:09:09.330Z,100681.25
2023-09-18T09:11:38.748Z,100678.91
2023-09-18T09:14:20.224Z,100674.25
2023-09-18T09:16:50.812Z,100667.72
2023-09-18T09:19:18.538Z,100665.81
2023-09-18T09:21:46.076Z,100658.19
2023-09-18T09:24:15.918Z,100662.84
2023-09-18T09:26:42.643Z,100652.25
2023-09-18T09:29:35.645Z,100661.31
2023-09-18T09:32:14.849Z,100643.78
2023-09-18T09:34:42.527Z,100634.53
2023-09-18T09:37:09.282Z,100635.13
2023-09-18T09:39:35.858Z,100647.56
2023-09-18T09:42:05.238Z,100632.53
2023-09-18T09:44:34.915Z,100628.53
2023-09-18T09:47:01.441Z,100628.28
2023-09-18T09:49:34.467Z,100624.47
2023-09-18T09:52:00.918Z,100617.94
2023-09-18T09:54:40.546Z,100613.72
2023-09-18T09:57:07.025Z,100610.13
2023-09-18T09:59:36.490Z,100598.31
2023-09-18T10:02:04.415Z,100594.28
2023-09-18T10:04:33.255Z,100596.81
2023-09-18T10:07:08.379Z,100585.63
2023-09-18T10:09:40.954Z,100590.91
2023-09-18T10:12:11.292Z,100591.75
2023-09-18T10:14:55.495Z,100589.41
2023-09-18T10:17:25.719Z,100575.66
2023-09-18T10:20:01.967Z,100565.72
2023-09-18T10:22:28.429Z,100565.72
2023-09-18T10:25:01.392Z,100560.25
2023-09-18T10:27:29.752Z,100564.06
2023-09-18T10:29:57.303Z,100550.34
2023-09-18T10:32:24.945Z,100547.34
2023-09-18T10:34:51.700Z,100542.94
2023-09-18T10:37:18.893Z,100535.53
2023-09-18T10:39:49.682Z,100530.28
2023-09-18T10:42:18.150Z,100537.44
2023-09-18T10:44:44.728Z,100530.53
2023-09-18T10:47:12.480Z,100535.78
2023-09-18T10:49:39.680Z,100535.53
2023-09-18T10:52:06.642Z,100535.94
2023-09-18T10:54:33.188Z,100533.81
2023-09-18T10:56:59.957Z,100533.81
2023-09-18T10:59:28.803Z,100530.22
2023-09-18T11:01:55.354Z,100532.97
2023-09-18T11:04:22.742Z,100534.66
2023-09-18T11:06:55.239Z,100533.81
2023-09-18T11:09:23.197Z,100530.00
2023-09-18T11:12:04.678Z,100532.28
2023-09-18T11:14:44.699Z,100536.69
2023-09-18T11:17:29.154Z,100532.28
2023-09-18T11:20:13.315Z,100525.94
2023-09-18T11:22:41.088Z,100536.91
2023-09-18T11:25:26.599Z,100543.72
2023-09-18T11:27:59.101Z,100536.56
2023-09-18T11:30:26.124Z,100531.91
2023-09-18T11:32:52.600Z,100544.78
2023-09-18T11:35:19.878Z,100532.09
2023-09-18T11:37:46.982Z,100526.00
2023-09-18T11:40:35.227Z,100519.25
2023-09-18T11:43:26.664Z,100522.81
2023-09-18T11:45:55.133Z,100530.81
2023-09-18T11:48:22.288Z,100538.47
2023-09-18T11:50:52.217Z,100531.50
2023-09-18T11:53:22.417Z,100530.66
2023-09-18T11:55:49.462Z,100534.25
2023-09-18T11:58:16.195Z,100537.84
2023-09-18T12:00:48.851Z,100534.50
2023-09-18T12:03:19.114Z,100536.16
2023-09-18T12:05:45.905Z,100543.56
2023-09-18T12:08:13.163Z,100549.06
2023-09-18T12:10:39.926Z,100542.94
2023-09-18T12:13:09.668Z,100547.59
2023-09-18T12:15:36.392Z,100547.81
2023-09-18T12:18:07.234Z,100543.38
2023-09-18T12:20:35.355Z,100537.06
2023-09-18T12:23:03.908Z,100533.25
2023-09-18T12:25:30.350Z,100532.41
2023-09-18T12:27:57.447Z,100527.97
2023-09-18T12:30:24.540Z,100529.06
2023-09-18T12:32:52.028Z,100526.91
2023-09-18T12:35:19.991Z,100531.56
2023-09-18T12:37:46.648Z,100536.22
2023-09-18T12:40:23.222Z,100534.53
2023-09-18T12:42:50.265Z,100538.13
2023-09-18T12:45:16.866Z,100527.34
2023-09-18T12:47:44.796Z,100526.50
2023-09-18T12:50:13.855Z,100519.31
2023-09-18T12:52:40.558Z,100510.25
2023-09-18T12:55:07.416Z,100511.31
2023-09-18T12:57:34.285Z,100506.66
2023-09-18T13:00:04.047Z,100503.09
2023-09-18T13:02:30.664Z,100495.69
2023-09-18T13:04:57.694Z,100496.75
2023-09-18T13:07:25.090Z,100502.47
2023-09-18T13:10:01.597Z,100504.16
2023-09-18T13:12:46.757Z,100498.66
2023-09-18T13:15:16.149Z,100495.09
2023-09-18T13:17:46.836Z,100492.56
2023-09-18T13:20:13.918Z,100488.97
2023-09-18T13:22:40.851Z,100487.06
2023-09-18T13:25:08.572Z,100494.22
2023-09-18T13:27:35.329Z,100501.41
2023-09-18T13:30:07.955Z,100507.75
2023-09-18T13:32:37.685Z,100501.41
2023-09-18T13:35:07.008Z,100505.19
2023-09-18T13:37:34.163Z,100501.88
2023-09-18T13:40:02.387Z,100518.94
2023-09-18T13:42:31.180Z,100510.94
2023-09-18T13:44:58.273Z,100506.28
2023-09-18T13:47:24.955Z,100519.16
2023-09-18T13:49:52.500Z,100521.91
2023-09-18T13:52:19.044Z,100521.06
2023-09-18T13:54:51.984Z,100512.84
2023-09-18T13:57:21.702Z,100506.50
2023-09-18T13:59:49.686Z,100506.50
2023-09-18T14:02:16.787Z,100498.28
2023-09-18T14:04:43.761Z,100492.78
2023-09-18T14:07:11.064Z,100488.13
2023-09-18T14:09:37.693Z,100495.53
2023-09-18T14:12:04.234Z,100481.56
2023-09-18T14:14:30.835Z,100491.72
2023-09-18T14:16:58.562Z,100488.97
2023-09-18T14:19:25.261Z,100483.72
2023-09-18T14:21:51.787Z,100470.84
2023-09-18T14:24:23.502Z,100465.09
2023-09-18T14:26:50.240Z,100456.88
2023-09-18T14:29:16.820Z,100458.78
2023-09-18T14:31:43.646Z,100451.38
2023-09-18T14:34:10.562Z,100445.06
2023-09-18T14:36:38.845Z,100434.91
2023-09-18T14:39:05.548Z,100441.03
2023-09-18T14:41:32.340Z,100437.44
2023-09-18T14:43:59.854Z,100446.28
2023-09-18T14:46:26.380Z,100438.03
2023-09-18T14:48:52.837Z,100432.78
2023-09-18T14:51:19.459Z,100431.09
2023-09-18T14:53:45.991Z,100425.59
2023-09-18T14:56:12.705Z,100417.59
2023-09-18T14:58:39.110Z,100427.75
2023-09-18T15:01:05.558Z,100432.16
2023-09-18T15:03:32.177Z,100429.41
2023-09-18T15:05:58.781Z,100434.91
2023-09-18T15:08:26.684Z,100439.56
2023-09-18T15:10:53.327Z,100442.31
2023-09-18T15:13:19.776Z,100444.22
2023-09-18T15:15:47.005Z,100450.31
2023-09-18T15:18:13.572Z,100448.63
2023-09-18T15:20:42.087Z,100448.63
2023-09-18T15:23:08.989Z,100453.28
2023-09-18T15:25:39.100Z,100465.34
2023-09-18T15:28:06.705Z,100471.66
2023-09-18T15:30:33.483Z,100470.84
2023-09-18T15:33:00.044Z,100470.00
2023-09-18T15:35:27.219Z,100471.66
2023-09-18T15:37:54.771Z,100482.66
2023-09-18T15:40:22.081Z,100487.06
2023-09-18T15:42:50.612Z,100483.50
2023-09-18T15:45:17.044Z,100475.25
2023-09-18T15:47:43.668Z,100484.56
2023-09-18T15:50:11.444Z,100474.41
2023-09-18T15:52:38.440Z,100470.84
2023-09-18T15:55:06.500Z,100470.84
2023-09-18T15:57:34.372Z,100470.84
2023-09-18T16:00:05.159Z,100470.84
2023-09-18T16:02:34.704Z,100469.53
2023-09-18T16:05:01.699Z,100468.94
2023-09-18T16:07:28.729Z,100464.28
2023-09-18T16:09:56.119Z,100478.84
2023-09-18T16:12:22.865Z,100476.09
2023-09-18T16:14:50.001Z,100469.75
2023-09-18T16:17:17.081Z,100472.50
2023-09-18T16:19:46.683Z,100469.75
2023-09-18T16:22:13.243Z,100475.25
2023-09-18T16:24:39.696Z,100477.75
2023-09-18T16:27:06.693Z,100487.06
2023-09-18T16:29:35.895Z,100476.09
2023-09-18T16:32:02.362Z,100484.31
2023-09-18T16:34:28.758Z,100479.47
2023-09-18T16:36:55.486Z,100482.19
2023-09-18T16:39:24.581Z,100486.22
2023-09-18T16:41:51.048Z,100486.00
2023-09-18T16:44:17.596Z,100478.63
2023-09-18T16:46:44.092Z,100486.22
2023-09-18T16:49:12.473Z,100484.31
2023-09-18T16:51:39.291Z,100483.25
2023-09-18T16:54:07.077Z,100468.94
2023-09-18T16:56:34.928Z,100486.00
2023-09-18T16:59:02.276Z,100480.75
2023-09-18T17:01:28.979Z,100482.66
2023-09-18T17:03:55.699Z,100484.56
2023-09-18T17:06:22.768Z,100490.88
2023-09-18T17:08:52.525Z,100495.09
2023-09-18T17:11:19.069Z,100483.25
2023-09-18T17:13:45.800Z,100475.00
2023-09-18T17:16:14.608Z,100476.91
2023-09-18T17:18:42.710Z,100472.50
2023-09-18T17:21:09.305Z,100467.66
2023-09-18T17:23:36.593Z,100470.38
2023-09-18T17:26:06.295Z,100475.00
2023-09-18T17:28:33.872Z,100472.25
2023-09-18T17:31:00.638Z,100476.72
2023-09-18T17:33:27.905Z,100481.38
2023-09-18T17:35:54.468Z,100470.59
2023-09-18T17:38:20.937Z,100462.38
2023-09-18T17:40:47.390Z,100462.16
2023-09-18T17:43:13.995Z,100456.66
2023-09-18T17:45:40.523Z,100458.78
2023-09-18T17:48:09.226Z,100460.25
2023-09-18T17:50:35.829Z,100468.47
2023-09-18T17:53:02.815Z,100466.56
2023-09-18T17:55:29.254Z,100475.88
2023-09-18T18:00:24.998Z,100475.63
2023-09-18T18:02:51.694Z,100473.13
2023-09-18T18:05:18.566Z,100472.06
2023-09-18T18:07:45.330Z,100477.53
2023-09-18T18:10:12.185Z,100466.78
2023-09-18T18:12:41.404Z,100463.81
2023-09-18T18:15:11.053Z,100471.22
2023-09-18T18:17:37.610Z,100468.47
2023-09-18T18:20:06.743Z,100465.72
2023-09-18T18:22:33.446Z,100466.56
2023-09-18T18:24:59.916Z,100465.72
2023-09-18T18:27:26.597Z,100473.34
2023-09-18T18:29:58.129Z,100463.44
2023-09-18T18:32:25.248Z,100464.50
2023-09-18T18:34:51.722Z,100461.97
2023-09-18T18:37:18.303Z,100467.47
2023-09-18T18:39:44.712Z,100477.16
2023-09-18T18:42:11.704Z,100475.25
2023-09-18T18:44:38.169Z,100465.34
2023-09-18T18:47:04.702Z,100470.00
2023-09-18T18:49:32.739Z,100464.50
2023-09-18T18:51:59.206Z,100464.50
2023-09-18T18:54:26.297Z,100470.00
2023-09-18T18:56:53.348Z,100475.50
2023-09-18T18:59:19.848Z,100467.25
2023-09-18T19:01:55.302Z,100470.22
2023-09-18T19:04:22.293Z,100468.31
2023-09-18T19:06:49.044Z,100455.66
2023-09-18T19:09:15.457Z,100454.81
2023-09-18T19:11:42.648Z,100452.50
2023-09-18T19:14:09.176Z,100452.50
2023-09-18T19:16:36.581Z,100452.50
2023-09-18T19:19:03.070Z,100456.97
2023-09-18T19:21:29.899Z,100459.72
2023-09-18T19:23:56.389Z,100460.53
2023-09-18T19:26:23.022Z,100450.63
2023-09-18T19:28:49.532Z,100451.91
2023-09-18T19:31:22.504Z,100446.19
2023-09-18T19:33:49.116Z,100445.16
2023-09-18T19:36:17.796Z,100442.59
2023-09-18T19:38:44.544Z,100430.56
2023-09-18T19:41:12.454Z,100430.78
2023-09-18T19:43:39.045Z,100438.19
2023-09-18T19:46:05.717Z,100431.88
2023-09-18T19:48:32.450Z,100438.19
2023-09-18T19:51:02.477Z,100446.44
2023-09-18T19:53:29.417Z,100443.94
2023-09-18T19:55:55.972Z,100433.41
2023-09-18T19:58:23.018Z,100430.66
2023-09-18T20:00:49.801Z,100437.81
2023-09-18T20:03:16.425Z,100431.47
2023-09-18T20:05:43.101Z,100432.31
2023-09-18T20:08:11.225Z,100430.66
2023-09-18T20:10:37.836Z,100429.81
2023-09-18T20:13:04.769Z,100428.13
2023-09-18T20:15:32.575Z,100436.97
2023-09-18T20:17:59.569Z,100434.22
2023-09-18T20:20:27.584Z,100433.59
2023-09-18T20:22:54.052Z,100434.69
2023-09-18T20:25:20.824Z,100424.53
2023-09-18T20:27:47.369Z,100431.94
2023-09-18T20:30:17.279Z,100433.84
2023-09-18T20:32:45.125Z,100426.69
2023-09-18T20:35:13.272Z,100432.16
2023-09-18T20:37:39.678Z,100422.28
2023-09-18T20:40:08.238Z,100427.75
2023-09-18T20:42:34.859Z,100425.22
2023-09-18T20:45:01.448Z,100418.91
2023-09-18T20:47:29.369Z,100423.31
2023-09-18T20:49:56.999Z,100419.72
2023-09-18T20:52:24.058Z,100420.56
2023-09-18T20:54:51.159Z,100422.28
2023-09-18T20:57:17.733Z,100423.31
2023-09-18T20:59:45.546Z,100425.69
2023-09-18T21:02:15.078Z,100427.81
2023-09-18T21:04:43.238Z,100436.66
2023-09-18T21:07:09.925Z,100435.19
2023-09-18T21:09:37.150Z,100427.56
2023-09-18T21:12:04.445Z,100424.22
2023-09-18T21:14:32.112Z,100418.97
2023-09-18T21:16:58.937Z,100425.31
2023-09-18T21:19:25.480Z,100432.69
2023-09-18T21:21:52.478Z,100422.78
2023-09-18T21:24:18.956Z,100436.50
2023-09-18T21:26:45.973Z,100443.69
2023-09-18T21:29:12.699Z,100443.69
2023-09-18T21:31:40.024Z,100438.19
2023-09-18T21:34:06.647Z,100437.56
2023-09-18T21:36:35.260Z,100439.47
2023-09-18T21:39:01.825Z,100456.75
2023-09-18T21:41:28.555Z,100446.84
2023-09-18T21:43:55.315Z,100452.56
2023-09-18T21:46:23.416Z,100458.50
2023-09-18T21:48:50.349Z,100454.69
2023-09-18T21:51:19.699Z,100448.38
2023-09-18T21:53:46.548Z,100454.53
2023-09-18T21:56:13.310Z,100448.44
2023-09-18T21:58:39.904Z,100454.38
2023-09-18T22:01:07.581Z,100449.50
2023-09-18T22:03:38.670Z,100446.31
2023-09-18T22:06:06.227Z,100447.16
2023-09-18T22:08:33.854Z,100450.72
2023-09-18T22:11:00.656Z,100452.63
2023-09-18T22:13:28.809Z,100442.09
2023-09-18T22:15:55.558Z,100440.44
2023-09-18T22:18:22.237Z,100440.44
2023-09-18T22:20:49.066Z,100428.63
2023-09-18T22:23:15.560Z,100433.47
2023-09-18T22:25:42.367Z,100441.31
2023-09-18T22:28:10.958Z,100432.03
2023-09-18T22:30:40.511Z,100422.13
2023-09-18T22:33:12.285Z,100425.25
2023-09-18T22:35:39.333Z,100423.13
2023-09-18T22:38:11.373Z,100423.13
2023-09-18T22:40:37.931Z,100421.28
2023-09-18T22:43:23.396Z,100419.59
2023-09-18T22:46:09.396Z,100422.13
2023-09-18T22:48:54.532Z,100416.72
2023-09-18T22:51:41.072Z,100415.88
2023-09-18T22:54:09.324Z,100425.13
2023-09-18T22:56:36.533Z,100423.25
2023-09-18T22:59:03.047Z,100430.41
2023-09-18T23:01:31.481Z,100433.16
2023-09-18T23:03:59.870Z,100429.19
2023-09-18T23:06:28.018Z,100435.28
2023-09-18T23:08:54.900Z,100429.78
2023-09-18T23:11:21.460Z,100421.56
2023-09-18T23:13:51.482Z,100430.44
2023-09-18T23:16:19.434Z,100433.00
2023-09-18T23:18:45.933Z,100427.28
2023-09-18T23:21:12.631Z,100428.53
2023-09-18T23:23:39.491Z,100420.31
2023-09-18T23:26:06.457Z,100414.41
2023-09-18T23:28:33.535Z,100418.81
2023-09-18T23:31:00.014Z,100417.78
2023-09-18T23:33:29.008Z,100410.38
2023-09-18T23:35:57.386Z,100410.41
2023-09-18T23:38:27.825Z,100406.84
2023-09-18T23:40:55.223Z,100419.06
2023-09-18T23:43:22.632Z,100412.50
2023-09-18T23:45:50.092Z,100405.59
2023-09-18T23:48:20.539Z,100404.31
2023-09-18T23:50:51.163Z,100415.66
2023-09-18T23:53:26.025Z,100407.84
2023-09-18T23:55:53.697Z,100407.25
2023-09-18T23:58:23.868Z,100400.50
